Time;durP1;ratioP1;P1;durP2;ratioP2;P2;SDS_P1;SDS_P2;PMS_P1;PMS_P2;Temp;Humidity;BMP_temperature;BMP_pressure;BME280_temperature;BME280_humidity;BME280_pressure;Samples;Min_cycle;Max_cycle;Signal;HPM_P1;HPM_P2
2022/05/18 00:00:27;;;;;;;6.43;5.93;;;;;;;18.14;77.17;101092.38;5051440;28;20212;-82
2022/05/18 00:02:55;;;;;;;6.43;6.03;;;;;;;18.13;77.31;101101.22;5032430;28;20293;-81
2022/05/18 00:05:22;;;;;;;7.37;6.77;;;;;;;18.11;77.81;101088.06;5039891;28;20233;-80
2022/05/18 00:07:48;;;;;;;7.60;6.90;;;;;;;18.11;77.89;101082.78;5039809;28;20735;-82
2022/05/18 00:10:14;;;;;;;7.33;6.90;;;;;;;18.12;78.01;101081.88;5038861;28;20595;-82
2022/05/18 00:12:44;;;;;;;7.10;6.60;;;;;;;18.12;78.13;101075.75;5039180;28;20209;-80
2022/05/18 00:15:10;;;;;;;7.57;7.07;;;;;;;18.09;78.31;101078.50;5039166;28;20650;-80
2022/05/18 00:17:37;;;;;;;8.07;7.47;;;;;;;18.05;78.69;101052.19;5038919;28;20259;-82
2022/05/18 00:20:05;;;;;;;8.07;7.47;;;;;;;18.02;78.84;101057.59;5038200;28;20276;-81
2022/05/18 00:22:32;;;;;;;7.63;6.90;;;;;;;17.97;79.68;101041.06;5039292;28;20749;-79
2022/05/18 00:25:00;;;;;;;9.90;7.30;;;;;;;17.98;79.36;101056.00;5039294;28;20287;-80
2022/05/18 00:27:26;;;;;;;6.97;6.47;;;;;;;17.94;79.79;101042.97;5038683;28;20789;-81
2022/05/18 00:29:53;;;;;;;7.90;7.33;;;;;;;17.92;80.25;101040.41;5041867;28;20676;-82
2022/05/18 00:32:19;;;;;;;8.07;7.47;;;;;;;17.91;80.03;101043.94;5042016;28;20673;-82
2022/05/18 00:34:46;;;;;;;8.40;7.80;;;;;;;17.88;80.39;101059.06;5057595;28;20585;-81
2022/05/18 00:37:13;;;;;;;8.03;7.43;;;;;;;17.90;80.16;101054.56;5058066;28;20247;-80
2022/05/18 00:39:40;;;;;;;7.50;6.90;;;;;;;17.80;80.99;101047.00;5057712;28;20258;-82
2022/05/18 00:42:07;;;;;;;10.17;7.20;;;;;;;17.80;81.29;101033.78;5058595;28;20204;-81
2022/05/18 00:44:33;;;;;;;8.30;7.60;;;;;;;17.79;80.92;101049.69;5057963;28;20229;-80
2022/05/18 00:46:59;;;;;;;7.60;7.00;;;;;;;17.82;80.73;101061.00;5057347;28;20234;-82
2022/05/18 00:49:26;;;;;;;6.80;6.30;;;;;;;17.79;80.55;101063.75;5057272;28;20224;-82
2022/05/18 00:51:55;;;;;;;7.63;6.97;;;;;;;17.78;80.07;101082.28;5058385;28;20247;-81
2022/05/18 00:54:26;;;;;;;7.37;6.87;;;;;;;17.74;80.18;101086.84;5058026;28;20209;-81
2022/05/18 00:56:57;;;;;;;6.27;5.77;;;;;;;17.72;80.28;101091.34;5057435;28;20564;-79
2022/05/18 00:59:28;;;;;;;6.83;6.27;;;;;;;17.68;80.29;101089.72;5049271;28;20210;-78
2022/05/18 01:01:56;;;;;;;6.23;5.80;;;;;;;17.64;80.40;101082.81;5039543;28;20767;-81
2022/05/18 01:04:25;;;;;;;7.57;6.97;;;;;;;17.58;80.67;101083.94;5056845;28;20225;-79
2022/05/18 01:06:56;;;;;;;6.20;5.80;;;;;;;17.52;80.52;101091.19;5056996;28;20208;-81
2022/05/18 01:09:28;;;;;;;6.37;5.87;;;;;;;17.53;80.35;101104.34;5055580;28;20212;-79
2022/05/18 01:11:55;;;;;;;6.37;5.80;;;;;;;17.50;80.35;101093.88;5056465;28;20208;-79
2022/05/18 01:14:26;;;;;;;6.50;6.10;;;;;;;17.37;81.05;101080.31;5055929;28;20199;-81
2022/05/18 01:16:54;;;;;;;6.37;5.77;;;;;;;17.28;81.80;101062.16;5056491;28;20686;-79
2022/05/18 01:19:27;;;;;;;6.13;5.73;;;;;;;17.27;81.36;101074.50;5055577;28;20209;-80
2022/05/18 01:22:04;;;;;;;6.47;5.87;;;;;;;17.31;81.07;101082.31;5056707;28;20740;-81
2022/05/18 01:24:40;;;;;;;6.90;6.50;;;;;;;17.30;81.35;101083.22;5056360;28;20289;-80
2022/05/18 01:27:08;;;;;;;7.70;7.20;;;;;;;17.28;81.06;101075.34;5056363;28;20281;-82
2022/05/18 01:29:35;;;;;;;7.13;6.63;;;;;;;17.32;81.00;101090.16;5047573;28;20243;-81
2022/05/18 01:32:05;;;;;;;7.00;6.60;;;;;;;17.32;80.69;101098.06;5039303;28;20204;-81
2022/05/18 01:34:35;;;;;;;7.10;6.60;;;;;;;17.31;80.93;101090.25;5054745;28;20583;-82
2022/05/18 01:37:02;;;;;;;6.63;6.23;;;;;;;17.24;81.55;101072.00;5057113;28;20669;-82
2022/05/18 01:39:33;;;;;;;6.43;6.03;;;;;;;17.23;81.32;101072.91;5058472;28;20204;-82
2022/05/18 01:42:10;;;;;;;7.03;6.53;;;;;;;17.25;81.02;101083.41;5060326;28;20209;-82
2022/05/18 01:44:40;;;;;;;6.23;5.43;;;;;;;17.23;80.68;101094.00;5059804;28;20278;-81
2022/05/18 01:47:07;;;;;;;6.30;5.80;;;;;;;17.20;80.89;101088.81;5059689;28;20224;-82
2022/05/18 01:49:35;;;;;;;5.80;5.40;;;;;;;17.20;81.14;101078.28;5057303;28;20597;-79
2022/05/18 01:52:02;;;;;;;5.40;5.00;;;;;;;17.20;81.11;101090.59;5055944;28;20265;-79
2022/05/18 01:54:28;;;;;;;6.10;5.57;;;;;;;17.19;81.12;101079.19;5056028;28;20203;-79
2022/05/18 01:56:54;;;;;;;5.93;5.53;;;;;;;17.20;81.23;101077.41;5055683;28;20249;-78
2022/05/18 01:59:21;;;;;;;5.20;4.90;;;;;;;17.18;81.77;101066.91;5048058;28;20213;-80
2022/05/18 02:01:49;;;;;;;5.00;4.70;;;;;;;17.18;81.69;101069.56;5038883;28;20258;-80
2022/05/18 02:04:16;;;;;;;6.37;5.83;;;;;;;17.18;81.82;101069.56;5055206;28;20233;-80
2022/05/18 02:06:42;;;;;;;7.37;6.67;;;;;;;17.19;82.09;101065.16;5055867;28;20208;-82
2022/05/18 02:09:08;;;;;;;6.90;6.40;;;;;;;17.25;81.75;101072.84;5054616;28;20212;-81
2022/05/18 02:11:36;;;;;;;6.90;6.17;;;;;;;17.26;81.74;101074.56;5055718;28;20582;-79
2022/05/18 02:14:03;;;;;;;6.80;6.30;;;;;;;17.31;81.78;101082.31;5055639;28;20204;-81
2022/05/18 02:16:30;;;;;;;7.73;7.10;;;;;;;17.25;81.97;101086.91;5055436;28;20200;-81
2022/05/18 02:18:57;;;;;;;7.57;7.03;;;;;;;17.27;81.96;101078.94;5055220;28;20227;-79
2022/05/18 02:21:24;;;;;;;7.47;6.90;;;;;;;17.26;82.19;101078.06;5054853;28;20743;-80
2022/05/18 02:23:50;;;;;;;7.70;7.10;;;;;;;17.23;81.86;101080.81;5055357;28;20230;-80
2022/05/18 02:26:18;;;;;;;8.33;7.67;;;;;;;17.24;82.06;101084.31;5054498;28;20246;-80
2022/05/18 02:28:45;;;;;;;7.43;6.93;;;;;;;17.24;81.91;101076.38;5052944;28;20228;-79
2022/05/18 02:31:12;;;;;;;7.90;7.40;;;;;;;17.25;82.10;101088.69;5036216;28;20200;-80
2022/05/18 02:33:39;;;;;;;8.83;8.23;;;;;;;17.21;82.31;101079.16;5052474;28;20207;-79
2022/05/18 02:36:08;;;;;;;7.80;7.10;;;;;;;17.18;82.00;101081.88;5055186;28;20209;-80
2022/05/18 02:38:35;;;;;;;8.40;7.80;;;;;;;17.18;82.20;101087.16;5055097;28;20614;-81
2022/05/18 02:41:01;;;;;;;9.37;8.57;;;;;;;17.15;82.59;101085.50;5053486;28;20262;-80
2022/05/18 02:43:28;;;;;;;8.73;8.03;;;;;;;17.15;82.21;101090.78;5055514;28;20212;-81
2022/05/18 02:46:02;;;;;;;8.13;7.43;;;;;;;17.15;82.52;101092.56;5055043;28;20233;-80
2022/05/18 02:48:28;;;;;;;8.17;7.67;;;;;;;17.16;82.29;101097.75;5055200;28;20285;-79
2022/05/18 02:50:55;;;;;;;7.47;6.97;;;;;;;17.16;82.33;101110.09;5054626;28;20213;-81
2022/05/18 02:53:23;;;;;;;7.67;7.17;;;;;;;17.14;82.66;101098.75;5055215;28;20226;-81
2022/05/18 02:56:07;;;;;;;8.13;7.53;;;;;;;17.11;82.62;101097.09;5054674;28;20209;-81
2022/05/18 02:58:35;;;;;;;7.43;6.93;;;;;;;17.07;82.64;101093.69;5055257;28;20597;-81
2022/05/18 03:01:01;;;;;;;7.60;7.03;;;;;;;17.10;82.38;101097.13;5037602;28;20208;-80
2022/05/18 03:03:28;;;;;;;8.73;8.03;;;;;;;17.04;82.64;101093.78;5050929;28;20247;-81
2022/05/18 03:05:55;;;;;;;8.47;7.77;;;;;;;17.05;82.97;101081.47;5055324;28;20640;-80
2022/05/18 03:08:22;;;;;;;9.03;8.33;;;;;;;17.07;82.67;101090.19;5054465;28;20231;-80
2022/05/18 03:10:49;;;;;;;8.97;8.17;;;;;;;17.10;82.28;101097.13;5054314;28;20255;-81
2022/05/18 03:13:15;;;;;;;9.67;8.87;;;;;;;17.07;82.45;101098.97;5055070;28;20204;-79
2022/05/18 03:15:41;;;;;;;9.80;9.10;;;;;;;17.09;82.54;101104.19;5055683;28;20209;-81
2022/05/18 03:18:08;;;;;;;9.40;8.50;;;;;;;17.07;82.88;101101.59;5055197;28;20224;-80
2022/05/18 03:23:36;;;;;;;9.20;8.50;;;;;;;17.11;82.73;101109.44;5055434;28;20207;-79
2022/05/18 03:26:06;;;;;;;9.27;8.47;;;;;;;17.10;82.13;101111.19;5055363;28;20227;-79
2022/05/18 03:28:33;;;;;;;9.77;9.07;;;;;;;17.09;82.31;101124.44;5055317;28;20415;-81
2022/05/18 03:31:00;;;;;;;8.33;7.73;;;;;;;17.10;82.55;101110.31;5037417;28;20435;-81
2022/05/18 03:33:26;;;;;;;9.53;8.73;;;;;;;17.10;82.01;101124.38;5047859;28;20205;-79
2022/05/18 03:35:54;;;;;;;10.03;9.07;;;;;;;17.10;82.26;101127.00;5054109;28;20233;-79
2022/05/18 03:38:21;;;;;;;9.87;9.27;;;;;;;17.07;82.48;101114.78;5054407;28;20240;-80
2022/05/18 03:40:48;;;;;;;9.30;8.60;;;;;;;17.07;82.54;101121.84;5054573;28;20220;-79
2022/05/18 03:43:16;;;;;;;10.17;9.47;;;;;;;17.11;82.22;101130.53;5054306;28;20691;-80
2022/05/18 03:45:42;;;;;;;9.73;8.87;;;;;;;17.10;82.60;101126.16;5054434;28;20224;-80
2022/05/18 03:48:11;;;;;;;10.97;9.97;;;;;;;17.06;82.59;101118.34;5054618;28;20295;-80
2022/05/18 03:50:38;;;;;;;9.67;8.97;;;;;;;17.10;82.66;101110.31;5053574;28;20266;-80
2022/05/18 03:53:06;;;;;;;9.47;8.77;;;;;;;17.13;83.08;101110.22;5055201;28;20237;-80
2022/05/18 03:55:33;;;;;;;8.67;8.07;;;;;;;17.12;83.27;101108.50;5058019;28;20201;-79
2022/05/18 03:57:59;;;;;;;8.30;7.67;;;;;;;17.11;83.33;101112.06;5058136;28;20597;-81
2022/05/18 04:00:27;;;;;;;8.67;8.00;;;;;;;17.11;83.51;101112.91;5048003;28;20277;-81
2022/05/18 04:02:53;;;;;;;8.13;7.53;;;;;;;17.04;83.88;101111.41;5043590;28;20200;-79
2022/05/18 04:05:21;;;;;;;8.27;7.57;;;;;;;17.10;83.52;101111.19;5058058;28;20262;-80
2022/05/18 04:07:47;;;;;;;8.00;7.27;;;;;;;17.16;83.50;101125.94;5058018;28;20293;-80
2022/05/18 04:10:14;;;;;;;7.50;6.90;;;;;;;17.17;83.23;101127.66;5057293;28;20235;-81
2022/05/18 04:12:42;;;;;;;7.83;7.20;;;;;;;17.20;82.61;101152.16;5058040;28;20214;-81
2022/05/18 04:15:08;;;;;;;8.17;7.30;;;;;;;17.20;82.79;101160.06;5058130;28;20680;-82
2022/05/18 04:17:36;;;;;;;7.73;7.23;;;;;;;17.22;82.55;101154.72;5052485;28;20228;-81
2022/05/18 04:20:04;;;;;;;7.80;7.20;;;;;;;17.26;82.20;101169.53;5045531;28;20565;-81
2022/05/18 04:22:32;;;;;;;8.00;7.40;;;;;;;17.28;82.08;101178.25;5058021;28;20598;-80
2022/05/18 04:25:01;;;;;;;8.77;8.17;;;;;;;17.33;81.89;101186.03;5057766;28;20232;-79
2022/05/18 04:27:27;;;;;;;9.30;8.43;;;;;;;17.35;82.09;101186.84;5058547;28;20710;-81
2022/05/18 04:29:54;;;;;;;8.73;8.13;;;;;;;17.37;81.81;101183.22;5057395;28;20235;-81
2022/05/18 04:32:20;;;;;;;8.07;7.57;;;;;;;17.38;81.65;101192.88;5057747;28;20208;-82
2022/05/18 04:34:49;;;;;;;8.53;7.90;;;;;;;17.41;81.30;101203.31;5056388;28;20311;-81
2022/05/18 04:37:15;;;;;;;10.00;9.27;;;;;;;17.40;81.81;101206.88;5057794;28;20679;-80
2022/05/18 04:39:42;;;;;;;10.10;9.30;;;;;;;17.42;81.32;101210.34;5057385;28;20283;-82
2022/05/18 04:42:08;;;;;;;9.47;8.80;;;;;;;17.40;81.53;101219.19;5058299;28;20208;-80
2022/05/18 04:44:35;;;;;;;10.10;9.37;;;;;;;17.41;81.58;101207.75;5058407;28;20208;-79
2022/05/18 04:47:01;;;;;;;11.07;10.00;;;;;;;17.37;82.28;101185.88;5038218;28;20222;-81
2022/05/18 04:49:29;;;;;;;10.97;10.10;;;;;;;17.34;82.27;101180.69;5026762;28;20285;-80
2022/05/18 04:51:57;;;;;;;9.47;8.77;;;;;;;17.41;82.22;101189.28;5028070;28;20201;-81
2022/05/18 04:54:23;;;;;;;9.77;8.97;;;;;;;17.38;82.13;101187.59;5027541;28;20256;-80
2022/05/18 04:56:49;;;;;;;10.17;9.27;;;;;;;17.40;81.95;101192.81;5026672;28;20265;-81
2022/05/18 04:59:16;;;;;;;10.30;9.57;;;;;;;17.42;82.12;101199.78;5026259;28;20244;-81
2022/05/18 05:01:43;;;;;;;11.50;10.60;;;;;;;17.42;82.13;101189.22;5029405;28;20229;-81
2022/05/18 05:04:10;;;;;;;10.03;9.23;;;;;;;17.43;82.04;101192.72;5028399;28;20208;-81
2022/05/18 05:06:37;;;;;;;11.57;10.77;;;;;;;17.41;81.78;101208.59;5022614;28;20867;-81
2022/05/18 05:09:05;;;;;;;11.60;10.60;;;;;;;17.40;81.72;101209.53;5026442;28;20642;-83
2022/05/18 05:11:31;;;;;;;9.93;9.27;;;;;;;17.38;82.25;101205.19;5029269;28;20217;-83
2022/05/18 05:13:58;;;;;;;11.70;10.87;;;;;;;17.39;82.31;101205.16;5026374;28;20200;-82
2022/05/18 05:16:26;;;;;;;10.40;9.70;;;;;;;17.37;81.93;101200.84;5026822;28;20209;-82
2022/05/18 05:18:52;;;;;;;11.10;10.23;;;;;;;17.34;81.95;101201.78;5027003;28;20264;-82
2022/05/18 05:21:19;;;;;;;10.70;10.00;;;;;;;17.36;82.03;101210.56;5027142;28;20352;-83
2022/05/18 05:23:46;;;;;;;11.17;10.43;;;;;;;17.28;82.51;101202.00;5027051;28;20206;-83
2022/05/18 05:26:14;;;;;;;13.93;10.87;;;;;;;17.29;82.92;101192.34;5027746;28;20638;-82
2022/05/18 05:28:41;;;;;;;10.03;9.43;;;;;;;17.26;82.95;101180.09;5026714;28;20719;-83
2022/05/18 05:31:11;;;;;;;10.53;9.80;;;;;;;17.27;82.63;101195.03;5027918;28;20199;-82
2022/05/18 05:33:40;;;;;;;10.00;9.40;;;;;;;17.33;82.48;101207.16;5028470;28;20201;-81
2022/05/18 05:36:08;;;;;;;9.53;8.83;;;;;;;17.40;81.79;101229.75;5026333;28;20225;-79
2022/05/18 05:38:34;;;;;;;9.67;8.93;;;;;;;17.44;81.88;101226.09;5027137;28;20237;-83
2022/05/18 05:41:01;;;;;;;7.67;7.27;;;;;;;17.50;81.68;101225.88;5046344;28;20237;-83
2022/05/18 05:43:31;;;;;;;9.93;9.33;;;;;;;17.53;81.83;101222.28;5061796;28;20204;-83
2022/05/18 05:45:59;;;;;;;9.90;9.10;;;;;;;17.59;81.23;101224.72;5057993;28;20233;-81
2022/05/18 05:48:26;;;;;;;9.30;8.63;;;;;;;17.64;80.76;101239.47;5057808;28;20726;-82
2022/05/18 05:50:52;;;;;;;9.07;8.37;;;;;;;17.73;80.64;101246.19;5057296;28;20216;-83
2022/05/18 05:53:19;;;;;;;8.93;8.23;;;;;;;17.83;80.52;101239.69;5058515;28;20212;-84
2022/05/18 05:55:45;;;;;;;8.67;8.07;;;;;;;17.93;80.48;101255.22;5057289;28;20778;-83
2022/05/18 05:58:12;;;;;;;8.80;8.20;;;;;;;18.03;80.19;101260.09;5053262;28;20232;-83
2022/05/18 06:00:40;;;;;;;8.57;7.87;;;;;;;18.17;80.21;101259.56;5055605;28;20675;-81
2022/05/18 06:03:06;;;;;;;8.17;7.67;;;;;;;18.25;79.58;101270.75;5055965;28;20202;-82
2022/05/18 06:05:32;;;;;;;7.97;7.47;;;;;;;18.39;79.14;101285.19;5058216;28;20263;-83
2022/05/18 06:07:59;;;;;;;8.13;7.63;;;;;;;18.50;78.77;101298.03;5058263;28;20237;-82
2022/05/18 06:10:25;;;;;;;7.97;7.37;;;;;;;18.57;79.24;101289.81;5054972;28;20254;-83
2022/05/18 06:12:52;;;;;;;8.07;7.47;;;;;;;18.66;78.07;101310.59;5043314;28;20212;-83
2022/05/18 06:15:18;;;;;;;7.83;7.17;;;;;;;18.75;77.51;101343.78;5058232;28;20297;-83
2022/05/18 06:17:46;;;;;;;7.60;6.77;;;;;;;18.80;78.03;101328.59;5058151;28;20233;-82
2022/05/18 06:20:13;;;;;;;7.07;6.57;;;;;;;18.84;77.81;101326.69;5057430;28;20567;-82
2022/05/18 06:22:39;;;;;;;8.10;7.50;;;;;;;18.91;78.25;101320.25;5058101;28;20208;-83
2022/05/18 06:25:06;;;;;;;7.50;6.80;;;;;;;18.97;77.49;101337.69;5058015;28;20737;-83
2022/05/18 06:27:32;;;;;;;6.93;6.10;;;;;;;18.88;79.51;101312.44;5057802;28;20229;-83
2022/05/18 06:29:59;;;;;;;6.80;6.20;;;;;;;18.96;78.48;101301.53;5057674;28;20212;-84
2022/05/18 06:32:25;;;;;;;7.57;6.97;;;;;;;19.04;76.95;101357.66;5057965;28;20205;-82
2022/05/18 06:34:53;;;;;;;7.10;6.43;;;;;;;19.16;77.00;101372.19;5058137;28;20212;-82
2022/05/18 06:37:19;;;;;;;6.63;6.23;;;;;;;19.21;77.06;101362.28;5057841;28;20700;-83
2022/05/18 06:39:46;;;;;;;6.30;5.90;;;;;;;19.27;77.62;101361.19;5057071;28;20730;-83
2022/05/18 06:42:12;;;;;;;6.60;6.00;;;;;;;19.27;77.61;101340.88;5041269;28;20207;-84
2022/05/18 06:44:38;;;;;;;7.57;6.87;;;;;;;19.39;77.38;101350.94;5058412;28;20279;-83
2022/05/18 06:47:06;;;;;;;8.73;6.27;;;;;;;19.50;75.54;101395.50;5057752;28;20239;-82
2022/05/18 06:49:32;;;;;;;6.87;6.27;;;;;;;19.58;75.48;101414.63;5057246;28;20221;-81
2022/05/18 06:52:00;;;;;;;6.37;5.87;;;;;;;19.75;75.63;101411.28;5058092;28;20202;-83
2022/05/18 06:54:26;;;;;;;5.53;5.07;;;;;;;19.87;74.88;101422.31;5058151;28;20692;-83
2022/05/18 06:56:53;;;;;;;5.40;5.00;;;;;;;19.92;74.01;101458.31;5057564;28;20208;-84
2022/05/18 06:59:19;;;;;;;5.37;5.07;;;;;;;20.02;76.91;101385.41;5053590;28;20217;-81
2022/05/18 07:01:46;;;;;;;6.43;5.13;;;;;;;20.10;74.71;101419.56;5054181;28;20218;-80
2022/05/18 07:04:14;;;;;;;5.37;4.97;;;;;;;20.09;71.71;101515.03;5054069;28;20213;-82
2022/05/18 07:06:44;;;;;;;4.87;4.23;;;;;;;20.14;71.68;101535.13;5053884;28;20695;-80
2022/05/18 07:09:14;;;;;;;5.40;4.47;;;;;;;20.24;71.20;101540.91;5053184;28;20634;-81
2022/05/18 07:11:41;;;;;;;5.00;4.50;;;;;;;20.33;70.90;101523.75;5033195;28;20209;-81
2022/05/18 07:14:08;;;;;;;4.77;4.30;;;;;;;20.48;68.59;101604.47;5033410;28;20271;-81
2022/05/18 07:16:35;;;;;;;4.30;3.90;;;;;;;20.59;67.97;101642.91;5033682;28;20209;-81
2022/05/18 07:19:02;;;;;;;7.23;4.77;;;;;;;20.70;67.87;101646.91;5033781;28;20229;-82
2022/05/18 07:21:29;;;;;;;4.87;3.93;;;;;;;20.77;66.10;101699.66;5034006;28;20206;-81
2022/05/18 07:23:56;;;;;;;4.10;3.73;;;;;;;20.90;66.12;101705.31;5034902;28;20202;-81
2022/05/18 07:26:25;;;;;;;4.20;3.80;;;;;;;21.05;64.92;101745.41;5032770;28;20230;-81
2022/05/18 07:28:51;;;;;;;3.97;3.67;;;;;;;21.26;67.06;101679.91;5033775;28;20266;-82
2022/05/18 07:31:19;;;;;;;4.00;3.70;;;;;;;21.35;65.42;101703.41;5036555;28;20206;-81
2022/05/18 07:33:45;;;;;;;3.83;3.60;;;;;;;21.49;65.75;101705.50;5037052;28;20268;-81
2022/05/18 07:36:12;;;;;;;3.30;3.00;;;;;;;21.61;64.10;101758.09;5037548;28;20213;-81
2022/05/18 07:38:39;;;;;;;5.00;3.70;;;;;;;21.62;62.58;101799.66;5037493;28;20225;-81
2022/05/18 07:41:06;;;;;;;3.87;3.50;;;;;;;21.58;63.57;101796.28;5040382;28;20203;-81
2022/05/18 07:43:35;;;;;;;4.10;3.73;;;;;;;21.60;63.75;101774.94;5054917;28;20201;-83
2022/05/18 07:46:01;;;;;;;3.77;3.57;;;;;;;21.55;63.25;101783.13;5058073;28;20235;-81
2022/05/18 07:48:29;;;;;;;3.90;3.60;;;;;;;21.56;63.90;101760.06;5058480;28;20225;-82
2022/05/18 07:50:57;;;;;;;4.40;3.97;;;;;;;21.52;63.68;101769.97;5058732;28;20209;-82
2022/05/18 07:53:30;;;;;;;4.27;3.87;;;;;;;21.52;65.09;101743.41;5058752;28;20202;-83
2022/05/18 07:56:00;;;;;;;3.90;3.60;;;;;;;21.51;66.21;101677.91;5059138;28;20197;-83
2022/05/18 07:58:27;;;;;;;3.33;3.13;;;;;;;21.63;67.70;101620.69;5058954;28;20769;-82
2022/05/18 08:00:54;;;;;;;4.17;3.87;;;;;;;21.72;67.36;101632.69;5067891;28;20240;-79
2022/05/18 08:03:21;;;;;;;4.13;3.70;;;;;;;21.87;64.62;101724.16;5071529;28;20579;-78
2022/05/18 08:05:47;;;;;;;4.33;3.90;;;;;;;22.00;63.31;101755.44;5060713;28;20259;-79
2022/05/18 08:08:18;;;;;;;4.23;3.90;;;;;;;22.15;62.44;101795.53;5057427;28;20225;-79
2022/05/18 08:16:16;;;;;;;4.47;3.30;;;;;;;21.97;60.84;101850.44;5056072;28;20208;-79
2022/05/18 08:18:42;;;;;;;3.77;3.50;;;;;;;21.90;61.46;101840.97;5057192;28;20292;-79
2022/05/18 08:21:09;;;;;;;4.03;3.60;;;;;;;21.89;63.99;101800.25;5057212;28;20206;-79
2022/05/18 08:23:36;;;;;;;4.47;3.40;;;;;;;21.69;61.72;101798.47;5056770;28;20209;-78
2022/05/18 08:26:03;;;;;;;3.70;3.40;;;;;;;21.75;63.76;101768.09;5056556;28;20225;-81
2022/05/18 08:28:29;;;;;;;3.93;3.57;;;;;;;21.72;63.35;101742.50;5055925;28;20221;-81
2022/05/18 08:30:56;;;;;;;3.87;3.57;;;;;;;21.46;63.08;101756.09;5055340;28;20201;-79
2022/05/18 08:33:24;;;;;;;4.13;3.27;;;;;;;21.51;64.86;101690.34;5055657;28;20279;-81
2022/05/18 08:35:51;;;;;;;3.63;3.43;;;;;;;21.51;67.90;101590.25;5056969;28;20296;-79
2022/05/18 08:38:17;;;;;;;4.20;3.90;;;;;;;21.60;65.92;101626.13;5056470;28;20233;-82
2022/05/18 08:40:49;;;;;;;3.97;3.67;;;;;;;21.58;67.34;101634.19;5047640;28;20203;-80
2022/05/18 08:43:20;;;;;;;4.20;3.87;;;;;;;;;;5043527;28;20317;-79
2022/05/18 08:45:48;;;;;;;4.13;3.60;;;;;;;21.79;68.32;101611.06;5041052;28;20253;-78
2022/05/18 08:48:44;;;;;;;4.00;3.70;;;;;;;21.86;64.93;101662.13;5016252;28;20227;-81
2022/05/18 08:51:24;;;;;;;4.07;3.77;;;;;;;21.96;66.79;101639.53;5018002;28;20261;-81
2022/05/18 08:53:58;;;;;;;3.83;3.60;;;;;;;22.04;64.02;101731.34;5026997;28;20205;-80
2022/05/18 08:56:31;;;;;;;4.03;3.27;;;;;;;22.15;64.23;101724.59;5027143;28;20794;-80
2022/05/18 08:58:57;;;;;;;3.50;3.30;;;;;;;22.23;61.95;101788.06;5026292;28;20531;-80
2022/05/18 09:01:28;;;;;;;5.17;3.63;;;;;;;22.33;62.46;101768.13;5024560;28;20195;-80
2022/05/18 09:03:58;;;;;;;3.57;3.30;;;;;;;22.47;63.84;101724.03;5026007;28;20880;-79
2022/05/18 09:06:30;;;;;;;4.30;3.90;;;;;;;22.54;61.93;101773.38;5027120;28;20245;-80
2022/05/18 09:11:48;;;;;;;5.03;3.50;;;;;;;22.73;63.90;101662.38;5026550;28;20283;-81
2022/05/18 09:14:18;;;;;;;4.73;4.33;;;;;;;22.83;63.72;101678.75;5026603;28;20203;-80
2022/05/18 09:16:51;;;;;;;4.27;3.87;;;;;;;22.81;61.80;101749.84;5032400;28;20201;-79
2022/05/18 09:19:32;;;;;;;4.73;3.60;;;;;;;22.80;58.15;101849.31;5042558;28;20237;-79
2022/05/18 09:22:07;;;;;;;4.10;3.80;;;;;;;22.94;61.80;101760.78;5038771;28;20202;-79
2022/05/18 09:24:48;;;;;;;4.10;3.80;;;;;;;23.06;61.35;101773.50;5033987;28;20260;-81
2022/05/18 09:27:31;;;;;;;3.90;3.60;;;;;;;23.19;59.83;101816.34;5025970;28;20692;-79
2022/05/18 09:30:04;;;;;;;5.53;3.97;;;;;;;23.29;60.14;101806.09;5026133;28;20200;-82
2022/05/18 09:32:59;;;;;;;3.60;3.30;;;;;;;23.38;59.39;101811.81;5026897;28;20198;-82
2022/05/18 09:35:45;;;;;;;5.13;3.60;;;;;;;23.39;57.93;101853.53;5025195;28;20233;-81
2022/05/18 09:38:20;;;;;;;4.40;3.63;;;;;;;23.49;59.23;101858.38;5025958;28;20782;-81
2022/05/18 09:40:50;;;;;;;4.30;3.70;;;;;;;23.63;61.74;101761.72;5025721;28;20201;-81
2022/05/18 09:43:26;;;;;;;4.03;3.73;;;;;;;23.76;59.21;101813.47;5026924;28;20210;-80
2022/05/18 09:45:53;;;;;;;3.77;3.47;;;;;;;23.89;58.56;101877.72;5026351;28;20229;-80
2022/05/18 09:48:37;;;;;;;4.00;3.60;;;;;;;24.01;55.89;101938.44;5024190;28;20737;-81
2022/05/18 09:51:06;;;;;;;3.77;3.43;;;;;;;24.14;58.47;101843.47;5027180;28;20703;-80
2022/05/18 09:53:32;;;;;;;3.87;3.50;;;;;;;24.09;53.42;101944.22;5024765;28;20199;-79
2022/05/18 09:55:59;;;;;;;4.27;3.43;;;;;;;24.21;54.84;101928.53;5024449;28;20254;-80
2022/05/18 09:58:30;;;;;;;3.73;3.43;;;;;;;24.28;55.93;101917.47;5026735;28;20256;-82
2022/05/18 10:09:40;;;;;;;3.73;3.53;;;;;;;24.67;54.43;101964.34;5024744;28;20211;-80
2022/05/18 10:12:13;;;;;;;3.53;3.23;;;;;;;24.79;52.86;101984.16;5026022;28;20684;-80
2022/05/18 10:14:39;;;;;;;3.63;3.33;;;;;;;24.89;51.62;102044.16;5026655;28;20225;-80
2022/05/18 10:17:08;;;;;;;2.80;2.70;;;;;;;24.71;50.50;102061.19;5023885;28;20272;-81
2022/05/18 10:19:44;;;;;;;3.37;3.03;;;;;;;24.61;51.41;102058.13;5023147;28;20253;-80
2022/05/18 10:22:19;;;;;;;3.00;2.80;;;;;;;24.56;52.17;102017.47;5026313;28;20207;-80
2022/05/18 10:24:52;;;;;;;3.80;3.50;;;;;;;24.80;53.17;101982.34;5026891;28;20195;-82
2022/05/18 10:27:25;;;;;;;3.90;3.60;;;;;;;24.90;51.30;102013.00;5027865;28;20231;-81
2022/05/18 10:30:03;;;;;;;3.83;3.53;;;;;;;24.93;51.63;102043.06;5024143;28;20200;-78
2022/05/18 10:32:31;;;;;;;4.10;3.70;;;;;;;25.05;51.67;102029.97;5015299;28;20214;-80
2022/05/18 10:35:00;;;;;;;3.70;3.33;;;;;;;25.08;51.18;102029.81;5019147;28;20265;-80
2022/05/18 10:37:31;;;;;;;3.93;3.33;;;;;;;25.18;50.20;102055.09;5020255;28;20614;-80
2022/05/18 10:40:01;;;;;;;3.10;2.90;;;;;;;25.21;50.32;102068.28;5017375;28;20545;-80
2022/05/18 10:42:30;;;;;;;4.20;3.20;;;;;;;25.41;50.69;102061.00;5016964;28;20213;-80
2022/05/18 10:44:59;;;;;;;3.03;2.83;;;;;;;25.56;50.79;102031.59;5014845;28;20210;-79
2022/05/18 10:47:30;;;;;;;4.23;2.83;;;;;;;25.52;47.05;102104.06;5014724;28;20716;-80
2022/05/18 10:50:32;;;;;;;3.00;2.70;;;;;;;25.65;47.13;102121.16;5013858;28;20211;-80
2022/05/18 10:53:17;;;;;;;2.83;2.63;;;;;;;25.56;45.99;102130.53;4940194;29;20667;-79
2022/05/18 10:55:56;;;;;;;2.87;2.50;;;;;;;25.69;46.32;102154.81;5019813;28;20206;-81
2022/05/18 10:58:25;;;;;;;2.70;2.50;;;;;;;25.82;46.16;102178.19;5034776;28;20225;-81
2022/05/18 11:00:56;;;;;;;3.10;2.80;;;;;;;25.94;45.40;102175.72;5037194;28;20214;-79
2022/05/18 11:03:30;;;;;;;4.33;2.33;;;;;;;26.00;44.61;102237.88;5048925;28;20197;-80
2022/05/18 11:06:03;;;;;;;2.70;2.50;;;;;;;25.92;43.74;102244.50;5058794;28;20205;-81
2022/05/18 11:08:31;;;;;;;3.10;2.80;;;;;;;26.20;44.36;102229.59;5057505;28;20225;-80
2022/05/18 11:11:06;;;;;;;13.67;3.23;;;;;;;26.31;44.04;102184.34;5057962;28;20683;-79
2022/05/18 11:13:38;;;;;;;3.27;2.97;;;;;;;26.36;44.78;102192.09;5058276;28;20209;-79
2022/05/18 11:16:15;;;;;;;3.30;3.00;;;;;;;26.60;43.24;102157.72;5058632;28;20205;-79
2022/05/18 11:18:47;;;;;;;3.00;2.80;;;;;;;26.91;43.79;102199.59;5058195;28;20303;-79
2022/05/18 11:21:22;;;;;;;3.07;2.77;;;;;;;27.10;41.34;102134.16;5058583;28;20267;-78
2022/05/18 11:24:00;;;;;;;3.03;2.60;;;;;;;26.84;41.80;102256.31;5057946;28;20259;-79
2022/05/18 11:26:36;;;;;;;3.20;2.90;;;;;;;27.12;41.74;102210.84;5057767;28;20213;-79
2022/05/18 11:29:21;;;;;;;3.03;2.83;;;;;;;27.65;42.96;102213.00;5056723;28;20259;-79
2022/05/18 11:31:58;;;;;;;3.07;2.80;;;;;;;28.42;40.79;102238.47;5034599;28;20202;-79
2022/05/18 11:34:35;;;;;;;2.83;2.63;;;;;;;29.16;36.99;102308.88;5057696;28;20205;-79
2022/05/18 11:37:15;;;;;;;3.30;3.00;;;;;;;29.98;37.72;102366.03;5060393;28;20205;-79
2022/05/18 11:39:53;;;;;;;3.63;3.33;;;;;;;30.73;35.61;102372.38;5067805;28;20822;-79
2022/05/18 11:42:26;;;;;;;3.47;3.00;;;;;;;30.99;34.70;102395.56;5067664;28;20263;-80
2022/05/18 11:45:05;;;;;;;3.77;3.40;;;;;;;32.01;32.83;102409.44;5060085;28;20205;-81
2022/05/18 11:47:53;;;;;;;2.87;2.67;;;;;;;32.79;32.88;102415.81;5058940;28;20240;-80
2022/05/18 11:50:29;;;;;;;3.00;2.80;;;;;;;33.50;31.98;102440.56;5056213;28;20646;-81
2022/05/18 11:53:08;;;;;;;2.80;2.60;;;;;;;35.17;31.15;102402.34;5057233;28;20213;-81